createdAt,value
2023-04-27T00:01:40.090Z,5.10
2023-04-27T00:04:06.746Z,5.10
2023-04-27T00:06:33.698Z,5.00
2023-04-27T00:09:00.411Z,5.10
2023-04-27T00:11:27.233Z,5.10
2023-04-27T00:13:53.660Z,5.00
2023-04-27T00:16:20.577Z,5.00
2023-04-27T00:18:47.447Z,4.90
2023-04-27T00:21:13.948Z,4.90
2023-04-27T00:23:40.780Z,4.80
2023-04-27T00:26:07.257Z,4.80
2023-04-27T00:28:34.096Z,4.80
2023-04-27T00:31:00.546Z,4.70
2023-04-27T00:33:27.280Z,4.70
2023-04-27T00:35:53.739Z,4.70
2023-04-27T00:38:20.808Z,4.70
2023-04-27T00:40:47.602Z,4.70
2023-04-27T00:43:14.406Z,4.70
2023-04-27T00:45:43.498Z,4.70
2023-04-27T00:48:13.437Z,4.70
2023-04-27T00:50:40.368Z,4.70
2023-04-27T00:53:07.256Z,4.60
2023-04-27T00:55:33.739Z,4.60
2023-04-27T00:58:00.619Z,4.60
2023-04-27T01:00:27.341Z,4.50
2023-04-27T01:02:55.785Z,4.50
2023-04-27T01:07:49.586Z,4.50
2023-04-27T01:10:16.415Z,4.40
2023-04-27T01:12:43.494Z,4.40
2023-04-27T01:15:10.623Z,4.40
2023-04-27T01:17:37.547Z,4.30
2023-04-27T01:20:04.530Z,4.30
2023-04-27T01:22:31.339Z,4.30
2023-04-27T01:24:58.104Z,4.20
2023-04-27T01:27:24.752Z,4.20
2023-04-27T01:29:51.521Z,4.20
2023-04-27T01:32:18.023Z,4.20
2023-04-27T01:34:44.917Z,4.10
2023-04-27T01:37:11.395Z,4.10
2023-04-27T01:39:38.648Z,4.10
2023-04-27T01:42:05.537Z,4.00
2023-04-27T01:44:32.467Z,4.00
2023-04-27T01:46:58.946Z,4.00
2023-04-27T01:49:25.747Z,4.00
2023-04-27T01:51:52.212Z,3.90
2023-04-27T01:54:18.919Z,3.90
2023-04-27T01:56:45.361Z,3.90
2023-04-27T01:59:12.320Z,3.90
2023-04-27T02:01:39.412Z,3.80
2023-04-27T02:04:06.040Z,3.80
2023-04-27T02:06:33.262Z,3.80
2023-04-27T02:08:59.836Z,3.80
2023-04-27T02:11:26.714Z,3.80
2023-04-27T02:13:53.600Z,3.80
2023-04-27T02:16:20.182Z,3.80
2023-04-27T02:18:47.015Z,3.80
2023-04-27T02:21:13.465Z,3.80
2023-04-27T02:23:40.614Z,3.80
2023-04-27T02:26:07.089Z,3.80
2023-04-27T02:28:33.727Z,3.80
2023-04-27T02:31:00.731Z,3.80
2023-04-27T02:33:27.516Z,3.80
2023-04-27T02:35:53.955Z,3.80
2023-04-27T02:38:20.933Z,3.70
2023-04-27T02:40:52.992Z,3.70
2023-04-27T02:43:19.431Z,3.70
2023-04-27T02:45:46.204Z,3.60
2023-04-27T02:48:12.702Z,3.60
2023-04-27T02:50:45.577Z,3.60
2023-04-27T02:53:12.886Z,3.60
2023-04-27T02:55:44.839Z,3.60
2023-04-27T02:58:11.647Z,3.50
2023-04-27T03:00:38.079Z,3.60
2023-04-27T03:03:04.932Z,3.60
2023-04-27T03:05:31.454Z,3.60
2023-04-27T03:07:58.298Z,3.60
2023-04-27T03:10:24.823Z,3.60
2023-04-27T03:12:51.771Z,3.60
2023-04-27T03:15:18.205Z,3.70
2023-04-27T03:17:45.052Z,3.60
2023-04-27T03:20:11.960Z,3.60
2023-04-27T03:22:39.122Z,3.60
2023-04-27T03:25:06.368Z,3.60
2023-04-27T03:27:32.824Z,3.60
2023-04-27T03:29:59.622Z,3.50
2023-04-27T03:32:26.088Z,3.50
2023-04-27T03:34:52.916Z,3.50
2023-04-27T03:37:19.360Z,3.40
2023-04-27T03:39:46.152Z,3.40
2023-04-27T03:42:12.709Z,3.30
2023-04-27T03:44:39.658Z,3.30
2023-04-27T03:47:06.128Z,3.30
2023-04-27T03:49:32.919Z,3.30
2023-04-27T03:51:59.862Z,3.30
2023-04-27T03:54:26.296Z,3.30
2023-04-27T03:56:53.104Z,3.30
2023-04-27T03:59:19.551Z,3.30
2023-04-27T04:01:46.341Z,3.30
2023-04-27T04:04:13.008Z,3.30
2023-04-27T04:06:39.908Z,3.30
2023-04-27T04:09:06.749Z,3.30
2023-04-27T04:11:33.209Z,3.20
2023-04-27T04:13:59.998Z,3.20
2023-04-27T04:16:26.610Z,3.30
2023-04-27T04:18:53.557Z,3.20
2023-04-27T04:21:19.991Z,3.20
2023-04-27T04:23:46.802Z,3.20
2023-04-27T04:26:13.275Z,3.20
2023-04-27T04:28:39.711Z,3.20
2023-04-27T04:31:06.629Z,3.30
2023-04-27T04:33:33.109Z,3.30
2023-04-27T04:35:59.576Z,3.30
2023-04-27T04:38:25.998Z,3.30
2023-04-27T04:40:52.442Z,3.30
2023-04-27T04:43:18.913Z,3.40
2023-04-27T04:45:45.342Z,3.40
2023-04-27T04:48:13.890Z,3.50
2023-04-27T04:50:40.329Z,3.50
2023-04-27T04:53:07.134Z,3.60
2023-04-27T04:55:33.657Z,3.60
2023-04-27T04:58:00.658Z,3.70
2023-04-27T05:00:27.226Z,3.80
2023-04-27T05:02:53.832Z,3.90
2023-04-27T05:05:20.483Z,4.00
2023-04-27T05:07:46.951Z,4.10
2023-04-27T05:10:13.716Z,4.20
2023-04-27T05:12:40.153Z,4.30
2023-04-27T05:15:07.479Z,4.40
2023-04-27T05:17:34.028Z,4.50
2023-04-27T05:20:00.575Z,4.60
2023-04-27T05:22:27.146Z,4.70
2023-04-27T05:24:53.619Z,4.90
2023-04-27T05:27:20.083Z,5.00
2023-04-27T05:29:46.514Z,5.20
2023-04-27T05:32:12.978Z,5.30
2023-04-27T05:34:39.443Z,5.70
2023-04-27T05:37:05.885Z,6.30
2023-04-27T05:39:32.329Z,7.30
2023-04-27T05:41:58.783Z,8.60
2023-04-27T05:44:25.235Z,9.80
2023-04-27T05:46:52.034Z,10.90
2023-04-27T05:49:18.482Z,12.10
2023-04-27T05:51:44.936Z,13.20
2023-04-27T05:54:11.378Z,14.10
2023-04-27T05:56:38.220Z,14.80
2023-04-27T05:59:04.841Z,15.20
2023-04-27T06:01:31.295Z,15.50
2023-04-27T06:03:57.833Z,15.80
2023-04-27T06:06:24.387Z,16.10
2023-04-27T06:08:50.839Z,16.40
2023-04-27T06:11:17.719Z,16.80
2023-04-27T06:13:44.610Z,16.80
2023-04-27T06:16:11.158Z,16.90
2023-04-27T06:18:38.078Z,17.30
2023-04-27T06:21:04.546Z,17.70
2023-04-27T06:23:31.067Z,18.10
2023-04-27T06:25:57.510Z,18.60
2023-04-27T06:28:24.005Z,18.60
2023-04-27T06:30:50.458Z,18.50
2023-04-27T06:33:16.971Z,18.10
2023-04-27T06:35:47.043Z,18.00
2023-04-27T06:38:13.953Z,17.50
2023-04-27T06:40:40.431Z,17.00
2023-04-27T06:43:06.916Z,16.90
2023-04-27T06:45:33.879Z,16.90
2023-04-27T06:48:00.984Z,17.00
2023-04-27T06:50:27.606Z,16.90
2023-04-27T06:52:54.118Z,16.70
2023-04-27T06:55:20.654Z,16.90
2023-04-27T06:57:47.393Z,17.10
2023-04-27T07:00:14.637Z,17.00
2023-04-27T07:02:41.205Z,16.90
2023-04-27T07:05:07.912Z,16.60
2023-04-27T07:07:34.440Z,16.90
2023-04-27T07:10:00.935Z,17.10
2023-04-27T07:12:27.385Z,17.30
2023-04-27T07:14:54.493Z,17.30
2023-04-27T07:17:21.420Z,17.80
2023-04-27T07:19:47.865Z,18.40
2023-04-27T07:22:14.689Z,18.80
2023-04-27T07:24:41.177Z,19.20
2023-04-27T07:27:07.628Z,19.40
2023-04-27T07:29:34.311Z,19.60
2023-04-27T07:32:01.047Z,20.00
2023-04-27T07:34:32.893Z,20.30
2023-04-27T07:37:08.714Z,20.40
2023-04-27T07:39:35.629Z,20.10
2023-04-27T07:42:03.467Z,19.90
2023-04-27T07:44:30.700Z,20.00
2023-04-27T07:46:57.129Z,20.00
2023-04-27T07:49:24.384Z,20.50
2023-04-27T07:51:51.252Z,20.90
2023-04-27T07:54:17.699Z,21.00
2023-04-27T07:56:44.142Z,20.70
2023-04-27T07:59:10.887Z,20.90
2023-04-27T08:01:38.038Z,21.30
2023-04-27T08:04:04.962Z,21.80
2023-04-27T08:06:32.404Z,22.30
2023-04-27T08:08:59.054Z,21.90
2023-04-27T08:11:25.834Z,22.00
2023-04-27T08:13:52.735Z,22.60
2023-04-27T08:16:19.198Z,23.00
2023-04-27T08:18:46.061Z,23.20
2023-04-27T08:21:13.008Z,22.70
2023-04-27T08:23:39.476Z,22.40
2023-04-27T08:26:05.914Z,22.20
2023-04-27T08:28:32.388Z,22.30
2023-04-27T08:30:59.105Z,22.70
2023-04-27T08:33:25.703Z,22.30
2023-04-27T08:35:54.092Z,22.40
2023-04-27T08:38:21.127Z,21.90
2023-04-27T08:40:48.565Z,21.90
2023-04-27T08:43:15.037Z,21.70
2023-04-27T08:45:48.598Z,21.40
2023-04-27T08:48:15.065Z,21.70
2023-04-27T08:50:44.214Z,21.90
2023-04-27T08:53:17.989Z,22.00
2023-04-27T08:55:44.475Z,21.70
2023-04-27T08:58:10.920Z,21.70
2023-04-27T09:00:43.137Z,21.60
2023-04-27T09:03:25.631Z,21.30
2023-04-27T09:06:03.637Z,21.00
2023-04-27T09:08:45.791Z,20.70
2023-04-27T09:11:14.186Z,20.50
2023-04-27T09:13:42.832Z,19.90
2023-04-27T09:16:09.360Z,19.40
2023-04-27T09:18:37.219Z,18.70
2023-04-27T09:21:04.193Z,18.30
2023-04-27T09:23:32.039Z,18.70
2023-04-27T09:26:08.711Z,19.10
2023-04-27T09:28:39.058Z,19.60
2023-04-27T09:31:06.157Z,20.00
2023-04-27T09:33:34.703Z,20.20
2023-04-27T09:36:03.123Z,20.40
2023-04-27T09:38:30.323Z,20.60
2023-04-27T09:40:57.776Z,20.80
2023-04-27T09:43:24.360Z,20.90
2023-04-27T09:45:52.021Z,20.90
2023-04-27T09:48:18.568Z,20.70
2023-04-27T09:50:46.591Z,20.50
2023-04-27T09:53:15.534Z,20.50
2023-04-27T09:56:13.963Z,20.30
2023-04-27T09:58:51.854Z,20.30
2023-04-27T10:01:30.073Z,20.30
2023-04-27T10:04:29.532Z,20.60
2023-04-27T10:07:08.986Z,20.70
2023-04-27T10:09:40.072Z,20.70
2023-04-27T10:12:16.365Z,20.80
2023-04-27T10:15:15.974Z,20.90
2023-04-27T10:17:50.516Z,21.20
2023-04-27T10:20:17.081Z,21.70
2023-04-27T10:22:49.727Z,22.10
2023-04-27T10:25:25.249Z,22.40
2023-04-27T10:27:56.380Z,22.40
2023-04-27T10:30:25.174Z,21.90
2023-04-27T10:32:57.206Z,22.00
2023-04-27T10:35:36.719Z,22.10
2023-04-27T10:38:07.922Z,22.40
2023-04-27T10:40:35.703Z,22.50
2023-04-27T10:43:13.096Z,22.40
2023-04-27T10:45:40.982Z,22.40
2023-04-27T10:48:07.784Z,22.00
2023-04-27T10:50:34.901Z,22.20
2023-04-27T10:53:07.385Z,22.40
2023-04-27T10:55:35.585Z,22.40
2023-04-27T10:58:02.456Z,22.30
2023-04-27T11:00:32.757Z,22.00
2023-04-27T11:03:30.310Z,22.00
2023-04-27T11:06:02.526Z,21.50
2023-04-27T11:08:29.036Z,21.30
2023-04-27T11:10:55.453Z,21.20
2023-04-27T11:13:26.520Z,21.10
2023-04-27T11:15:54.298Z,21.00
2023-04-27T11:18:22.983Z,20.90
2023-04-27T11:20:51.475Z,20.50
2023-04-27T11:23:29.080Z,20.10
2023-04-27T11:25:56.523Z,20.00
2023-04-27T11:28:24.496Z,19.80
2023-04-27T11:30:59.062Z,19.70
2023-04-27T11:33:26.746Z,19.40
2023-04-27T11:35:53.567Z,19.10
2023-04-27T11:38:20.668Z,18.70
2023-04-27T11:40:47.752Z,18.40
2023-04-27T11:43:14.395Z,18.10
2023-04-27T11:45:44.192Z,18.00
2023-04-27T11:48:15.354Z,17.80
2023-04-27T11:50:46.257Z,17.80
2023-04-27T11:53:12.699Z,17.80
2023-04-27T11:55:39.397Z,17.80
2023-04-27T11:58:06.331Z,17.80
2023-04-27T12:00:33.178Z,17.70
2023-04-27T12:02:59.969Z,17.80
2023-04-27T12:05:26.785Z,17.80
2023-04-27T12:07:53.615Z,17.90
2023-04-27T12:10:20.076Z,17.90
2023-04-27T12:12:46.546Z,17.90
2023-04-27T12:15:13.466Z,17.90
2023-04-27T12:17:40.119Z,17.90
2023-04-27T12:20:07.584Z,17.90
2023-04-27T12:22:34.039Z,17.90
2023-04-27T12:25:00.837Z,17.90
2023-04-27T12:27:27.301Z,17.90
2023-04-27T12:29:54.167Z,17.90
2023-04-27T12:32:20.673Z,18.00
2023-04-27T12:34:47.357Z,18.00
2023-04-27T12:37:13.797Z,18.10
2023-04-27T12:39:40.654Z,18.00
2023-04-27T12:42:07.106Z,18.10
2023-04-27T12:44:33.599Z,18.20
2023-04-27T12:47:00.375Z,18.10
2023-04-27T12:49:26.851Z,18.30
2023-04-27T12:51:53.813Z,18.40
2023-04-27T12:54:20.279Z,18.40
2023-04-27T12:56:47.155Z,18.40
2023-04-27T12:59:13.593Z,18.40
2023-04-27T13:01:40.516Z,18.30
2023-04-27T13:04:07.374Z,18.20
2023-04-27T13:06:34.022Z,18.20
2023-04-27T13:09:00.607Z,18.20
2023-04-27T13:11:27.186Z,18.30
2023-04-27T13:13:53.863Z,18.30
2023-04-27T13:16:20.516Z,18.30
2023-04-27T13:18:47.062Z,18.20
2023-04-27T13:21:13.867Z,18.10
2023-04-27T13:23:40.325Z,18.00
2023-04-27T13:26:06.869Z,17.90
2023-04-27T13:28:33.429Z,17.80
2023-04-27T13:31:00.573Z,17.70
2023-04-27T13:33:27.211Z,17.60
2023-04-27T13:35:53.696Z,17.60
2023-04-27T13:38:20.190Z,17.50
2023-04-27T13:40:47.033Z,17.50
2023-04-27T13:43:13.637Z,17.50
2023-04-27T13:45:40.071Z,17.60
2023-04-27T13:48:06.726Z,17.60
2023-04-27T13:50:33.230Z,17.60
2023-04-27T13:53:01.908Z,17.50
2023-04-27T13:55:28.602Z,17.60
2023-04-27T13:57:55.054Z,17.70
2023-04-27T14:00:21.746Z,17.80
2023-04-27T14:02:48.382Z,18.10
2023-04-27T14:05:15.317Z,18.20
2023-04-27T14:07:41.775Z,18.30
2023-04-27T14:10:09.081Z,18.40
2023-04-27T14:12:35.999Z,18.40
2023-04-27T14:15:02.642Z,18.30
2023-04-27T14:17:29.591Z,18.10
2023-04-27T14:19:56.035Z,18.00
2023-04-27T14:22:22.760Z,17.90
2023-04-27T14:24:49.221Z,17.80
2023-04-27T14:27:15.770Z,17.80
2023-04-27T14:29:42.221Z,17.80
2023-04-27T14:32:08.892Z,17.80
2023-04-27T14:34:35.724Z,17.80
2023-04-27T14:37:02.205Z,17.80
2023-04-27T14:39:28.716Z,17.90
2023-04-27T14:41:55.210Z,18.00
2023-04-27T14:44:21.999Z,18.00
2023-04-27T14:46:48.508Z,18.00
2023-04-27T14:49:15.627Z,17.90
2023-04-27T14:51:43.665Z,17.90
2023-04-27T14:54:10.288Z,17.90
2023-04-27T14:56:37.318Z,17.90
2023-04-27T14:59:04.638Z,17.90
2023-04-27T15:01:31.131Z,18.00
2023-04-27T15:03:57.790Z,18.00
2023-04-27T15:06:24.886Z,18.00
2023-04-27T15:08:51.311Z,18.00
2023-04-27T15:11:17.760Z,18.00
2023-04-27T15:13:44.481Z,17.90
2023-04-27T15:16:11.036Z,17.90
2023-04-27T15:18:37.908Z,17.80
2023-04-27T15:21:04.531Z,17.80
2023-04-27T15:23:31.011Z,17.80
2023-04-27T15:25:58.470Z,17.70
2023-04-27T15:28:25.186Z,17.60
2023-04-27T15:30:51.834Z,17.60
2023-04-27T15:33:19.260Z,17.60
2023-04-27T15:35:45.864Z,17.50
2023-04-27T15:38:13.235Z,17.50
2023-04-27T15:40:40.401Z,17.50
2023-04-27T15:43:06.989Z,17.60
2023-04-27T15:45:33.782Z,17.60
2023-04-27T15:48:00.355Z,17.60
2023-04-27T15:50:27.296Z,17.50
2023-04-27T15:52:53.733Z,17.60
2023-04-27T15:55:20.204Z,17.60
2023-04-27T15:57:46.699Z,17.50
2023-04-27T16:00:15.079Z,17.40
2023-04-27T16:02:41.712Z,17.30
2023-04-27T16:05:09.488Z,17.20
2023-04-27T16:07:36.864Z,17.10
2023-04-27T16:10:04.266Z,17.10
2023-04-27T16:12:30.752Z,17.10
2023-04-27T16:14:57.329Z,17.10
2023-04-27T16:17:28.345Z,17.10
2023-04-27T16:19:55.366Z,17.00
2023-04-27T16:22:21.834Z,16.90
2023-04-27T16:24:48.314Z,16.90
2023-04-27T16:27:15.149Z,16.80
2023-04-27T16:29:41.608Z,16.70
2023-04-27T16:32:08.446Z,16.70
2023-04-27T16:34:34.959Z,16.70
2023-04-27T16:37:01.403Z,16.60
2023-04-27T16:39:27.852Z,16.50
2023-04-27T16:41:54.297Z,16.40
2023-04-27T16:44:20.751Z,16.30
2023-04-27T16:46:47.369Z,16.30
2023-04-27T16:49:14.180Z,16.20
2023-04-27T16:51:40.795Z,16.10
2023-04-27T16:54:07.295Z,16.00
2023-04-27T16:56:35.379Z,15.90
2023-04-27T16:59:01.866Z,15.80
2023-04-27T17:01:28.370Z,15.60
2023-04-27T17:03:59.197Z,15.50
2023-04-27T17:06:26.224Z,15.40
2023-04-27T17:08:52.708Z,15.40
2023-04-27T17:11:19.221Z,15.30
2023-04-27T17:13:47.528Z,15.30
2023-04-27T17:16:14.134Z,15.20
2023-04-27T17:18:40.614Z,15.10
2023-04-27T17:21:07.297Z,15.00
2023-04-27T17:23:33.753Z,15.00
2023-04-27T17:26:00.473Z,14.80
2023-04-27T17:28:26.988Z,14.70
2023-04-27T17:30:53.517Z,14.60
2023-04-27T17:33:19.964Z,14.60
2023-04-27T17:35:46.426Z,14.50
2023-04-27T17:38:13.924Z,14.50
2023-04-27T17:40:40.628Z,14.50
2023-04-27T17:43:09.245Z,14.40
2023-04-27T17:45:35.990Z,14.40
2023-04-27T17:48:02.560Z,14.30
2023-04-27T17:50:29.826Z,14.30
2023-04-27T17:52:57.164Z,14.20
2023-04-27T17:55:24.389Z,14.10
2023-04-27T17:57:50.908Z,14.10
2023-04-27T18:00:17.721Z,14.00
2023-04-27T18:02:45.566Z,14.00
2023-04-27T18:05:12.115Z,14.00
2023-04-27T18:07:38.583Z,14.00
2023-04-27T18:10:05.882Z,13.90
2023-04-27T18:12:32.342Z,13.90
2023-04-27T18:15:00.047Z,13.90
2023-04-27T18:17:28.399Z,13.80
2023-04-27T18:20:06.987Z,13.90
2023-04-27T18:22:35.607Z,13.80
2023-04-27T18:25:02.302Z,13.80
2023-04-27T18:27:28.756Z,13.70
2023-04-27T18:29:55.622Z,13.70
2023-04-27T18:32:22.089Z,13.60
2023-04-27T18:34:48.869Z,13.60
2023-04-27T18:37:15.303Z,13.50
2023-04-27T18:39:41.751Z,13.50
2023-04-27T18:42:08.195Z,13.50
2023-04-27T18:44:34.665Z,13.40
2023-04-27T18:47:03.727Z,13.40
2023-04-27T18:49:30.165Z,13.30
2023-04-27T18:51:56.969Z,13.30
2023-04-27T18:54:23.424Z,13.30
2023-04-27T18:56:50.165Z,13.20
2023-04-27T18:59:16.646Z,13.20
2023-04-27T19:01:43.236Z,13.20
2023-04-27T19:04:09.871Z,13.10
2023-04-27T19:06:36.769Z,13.10
2023-04-27T19:09:03.325Z,13.10
2023-04-27T19:11:29.916Z,13.00
2023-04-27T19:13:56.788Z,13.00
2023-04-27T19:16:23.688Z,12.90
2023-04-27T19:18:50.503Z,12.90
2023-04-27T19:21:17.055Z,12.80
2023-04-27T19:23:43.601Z,12.80
2023-04-27T19:26:13.644Z,12.70
2023-04-27T19:28:40.807Z,12.70
2023-04-27T19:31:07.483Z,12.70
2023-04-27T19:33:34.337Z,12.70
2023-04-27T19:36:00.804Z,12.70
2023-04-27T19:38:27.347Z,12.70
2023-04-27T19:40:53.824Z,12.60
2023-04-27T19:43:20.313Z,12.60
2023-04-27T19:45:47.150Z,12.60
2023-04-27T19:48:13.637Z,12.60
2023-04-27T19:50:43.906Z,12.50
2023-04-27T19:53:10.380Z,12.50
2023-04-27T19:55:39.043Z,12.50
2023-04-27T19:58:05.502Z,12.50
2023-04-27T20:00:32.339Z,12.50
2023-04-27T20:02:58.963Z,12.50
2023-04-27T20:05:26.377Z,12.50
2023-04-27T20:07:52.974Z,12.40
2023-04-27T20:10:20.222Z,12.40
2023-04-27T20:12:55.947Z,12.40
2023-04-27T20:15:23.960Z,12.40
2023-04-27T20:17:50.936Z,12.40
2023-04-27T20:20:17.473Z,12.40
2023-04-27T20:22:43.929Z,12.40
2023-04-27T20:25:10.489Z,12.30
2023-04-27T20:27:36.960Z,12.30
2023-04-27T20:30:03.595Z,12.40
2023-04-27T20:32:30.061Z,12.30
2023-04-27T20:34:56.758Z,12.30
2023-04-27T20:37:23.657Z,12.30
2023-04-27T20:39:51.106Z,12.30
2023-04-27T20:42:17.705Z,12.30
2023-04-27T20:44:45.174Z,12.30
2023-04-27T20:47:11.948Z,12.30
2023-04-27T20:49:38.723Z,12.20
2023-04-27T20:52:05.313Z,12.20
2023-04-27T20:54:31.790Z,12.10
2023-04-27T20:56:58.702Z,12.10
2023-04-27T20:59:25.174Z,12.10
2023-04-27T21:01:51.864Z,12.10
2023-04-27T21:04:18.725Z,12.10
2023-04-27T21:06:45.900Z,12.10
2023-04-27T21:09:12.347Z,12.10
2023-04-27T21:11:38.795Z,12.00
2023-04-27T21:14:05.583Z,12.00
2023-04-27T21:16:32.031Z,12.00
2023-04-27T21:18:59.058Z,12.00
2023-04-27T21:21:25.983Z,11.90
2023-04-27T21:24:04.078Z,11.90
2023-04-27T21:26:33.463Z,11.90
2023-04-27T21:28:59.900Z,11.80
2023-04-27T21:31:26.399Z,11.80
2023-04-27T21:33:52.867Z,11.70
2023-04-27T21:36:20.129Z,11.70
2023-04-27T21:38:46.566Z,11.70
2023-04-27T21:41:13.310Z,11.70
2023-04-27T21:43:39.751Z,11.70
2023-04-27T21:46:06.182Z,11.70
2023-04-27T21:48:33.008Z,11.60
2023-04-27T21:50:59.467Z,11.60
2023-04-27T21:53:26.428Z,11.50
2023-04-27T21:55:56.274Z,11.50
2023-04-27T21:58:23.086Z,11.50
2023-04-27T22:00:49.887Z,11.50
2023-04-27T22:03:16.910Z,11.50
2023-04-27T22:05:43.560Z,11.50
2023-04-27T22:08:10.335Z,11.40
2023-04-27T22:10:36.790Z,11.50
2023-04-27T22:13:15.081Z,11.40
2023-04-27T22:15:45.676Z,11.40
2023-04-27T22:18:12.159Z,11.40
2023-04-27T22:20:38.990Z,11.40
2023-04-27T22:23:05.628Z,11.40
2023-04-27T22:25:33.768Z,11.40
2023-04-27T22:28:00.306Z,11.50
2023-04-27T22:30:27.686Z,11.40
2023-04-27T22:32:54.350Z,11.40
2023-04-27T22:37:50.658Z,11.40
2023-04-27T22:40:17.194Z,11.40
2023-04-27T22:42:44.033Z,11.30
2023-04-27T22:45:10.915Z,11.30
2023-04-27T22:47:37.733Z,11.30
2023-04-27T22:50:04.378Z,11.30
2023-04-27T22:52:31.157Z,11.30
2023-04-27T22:54:58.098Z,11.30
2023-04-27T22:57:24.975Z,11.30
2023-04-27T22:59:51.426Z,11.30
2023-04-27T23:02:18.318Z,11.30
2023-04-27T23:04:45.188Z,11.30
2023-04-27T23:07:11.647Z,11.20
2023-04-27T23:09:38.358Z,11.20
2023-04-27T23:12:05.015Z,11.20
2023-04-27T23:14:32.032Z,11.20
2023-04-27T23:16:58.563Z,11.20
2023-04-27T23:19:25.476Z,11.20
2023-04-27T23:21:52.369Z,11.20
2023-04-27T23:24:18.839Z,11.20
2023-04-27T23:26:45.669Z,11.20
2023-04-27T23:29:12.469Z,11.30
2023-04-27T23:31:38.988Z,11.30
2023-04-27T23:34:05.908Z,11.30
2023-04-27T23:36:32.712Z,11.30
2023-04-27T23:38:59.199Z,11.30
2023-04-27T23:41:25.980Z,11.30
2023-04-27T23:43:52.815Z,11.30
2023-04-27T23:46:19.655Z,11.30
2023-04-27T23:48:46.581Z,11.30
2023-04-27T23:51:13.354Z,11.30
2023-04-27T23:53:39.829Z,11.30
2023-04-27T23:56:06.982Z,11.30
2023-04-27T23:58:33.418Z,11.30
